TimeMST,TemperatureF,Dew PointF,Humidity,Sea Level PressureIn,VisibilityMPH,Wind Direction,Wind SpeedMPH,Gust SpeedMPH,PrecipitationIn,Events,Conditions,WindDirDegrees,DateUTC
12:58 AM,33.4,25.7,73,30.14,10.0,East,17.3,-,N/A,,Clear,100,2013-02-07 07:58:00
1:58 AM,35.2,25.0,66,30.11,10.0,ESE,19.6,26.5,N/A,,Clear,110,2013-02-07 08:58:00
2:58 AM,34.7,24.8,67,30.09,10.0,ESE,23.0,-,N/A,,Partly Cloudy,110,2013-02-07 09:58:00
3:58 AM,34.9,24.8,67,30.05,10.0,ESE,20.7,28.8,N/A,,Mostly Cloudy,120,2013-02-07 10:58:00
4:58 AM,34.0,25.2,70,30.05,10.0,ESE,20.7,29.9,N/A,,Clear,110,2013-02-07 11:58:00
5:58 AM,34.0,25.0,70,30.04,10.0,ESE,20.7,-,N/A,,Clear,120,2013-02-07 12:58:00
6:58 AM,33.8,24.6,69,30.05,10.0,ESE,17.3,-,N/A,,Partly Cloudy,120,2013-02-07 13:58:00
7:58 AM,34.5,24.4,67,30.04,10.0,ESE,18.4,-,N/A,,Partly Cloudy,120,2013-02-07 14:58:00
8:58 AM,35.2,24.6,65,30.04,10.0,ESE,19.6,-,N/A,,Scattered Clouds,110,2013-02-07 15:58:00
9:58 AM,37.4,24.4,60,30.02,10.0,ESE,23.0,29.9,N/A,,Mostly Cloudy,110,2013-02-07 16:58:00
10:58 AM,39.0,24.4,56,30.01,10.0,ESE,23.0,-,N/A,,Mostly Cloudy,110,2013-02-07 17:58:00
11:58 AM,40.5,24.6,53,29.99,10.0,ESE,21.9,32.2,N/A,,Mostly Cloudy,110,2013-02-07 18:58:00
12:58 PM,42.1,24.6,50,29.96,10.0,ESE,19.6,-,N/A,,Mostly Cloudy,110,2013-02-07 19:58:00
1:58 PM,43.0,24.3,48,29.94,10.0,ESE,23.0,-,N/A,,Mostly Cloudy,110,2013-02-07 20:58:00
2:58 PM,43.5,25.5,49,29.93,10.0,ESE,18.4,-,N/A,,Mostly Cloudy,110,2013-02-07 21:58:00
3:58 PM,43.3,25.3,49,29.93,10.0,ESE,16.1,-,N/A,,Mostly Cloudy,110,2013-02-07 22:58:00
4:58 PM,41.9,25.7,53,29.92,10.0,ESE,13.8,-,N/A,,Mostly Cloudy,110,2013-02-07 23:58:00
5:58 PM,40.5,25.5,55,29.92,10.0,ESE,12.7,-,N/A,,Partly Cloudy,120,2013-02-08 00:58:00
6:58 PM,37.9,25.3,60,29.93,10.0,SE,10.4,-,N/A,,Clear,130,2013-02-08 01:58:00
7:58 PM,34.2,25.0,69,29.94,10.0,ESE,5.8,-,N/A,,Partly Cloudy,120,2013-02-08 02:58:00
8:33 PM,32.0,24.8,75,29.89,10.0,Variable,3.5,-,N/A,,Mostly Cloudy,0,2013-02-08 03:33:00
8:58 PM,32.9,25.9,75,29.95,10.0,NW,5.8,-,N/A,,Overcast,320,2013-02-08 03:58:00
9:08 PM,33.8,26.6,75,29.90,10.0,NW,5.8,-,N/A,,Scattered Clouds,320,2013-02-08 04:08:00
9:58 PM,35.2,25.2,67,29.94,10.0,NNW,4.6,-,N/A,,Partly Cloudy,340,2013-02-08 04:58:00
10:03 PM,35.6,24.8,65,29.90,10.0,North,3.5,-,N/A,,Mostly Cloudy,360,2013-02-08 05:03:00
10:58 PM,35.1,25.5,68,29.95,10.0,Calm,Calm,-,N/A,,Mostly Cloudy,0,2013-02-08 05:58:00
11:03 PM,35.6,24.8,65,29.91,10.0,Calm,Calm,-,N/A,,Mostly Cloudy,0,2013-02-08 06:03:00
11:38 PM,32.0,26.6,80,29.90,10.0,West,2.3,-,N/A,,Overcast,280,2013-02-08 06:38:00
11:58 PM,33.8,27.0,76,29.94,10.0,WSW,3.5,-,N/A,,Overcast,240,2013-02-08 06:58:00